sensor_id;sensor_type;location;lat;lon;timestamp;P1;durP1;ratioP1;P2;durP2;ratioP2
50363;SDS011;36272;59.400;17.982;2023-04-03T00:02:06;12.40;;;2.47;;
50363;SDS011;36272;59.400;17.982;2023-04-03T00:07:07;18.80;;;2.22;;
50363;SDS011;36272;59.400;17.982;2023-04-03T00:12:19;13.70;;;2.00;;
50363;SDS011;36272;59.400;17.982;2023-04-03T00:17:21;12.60;;;2.20;;
50363;SDS011;36272;59.400;17.982;2023-04-03T00:22:23;9.10;;;2.17;;
50363;SDS011;36272;59.400;17.982;2023-04-03T00:27:25;12.73;;;2.47;;
50363;SDS011;36272;59.400;17.982;2023-04-03T00:32:29;12.05;;;2.35;;
50363;SDS011;36272;59.400;17.982;2023-04-03T00:37:31;14.52;;;2.25;;
50363;SDS011;36272;59.400;17.982;2023-04-03T00:42:33;16.45;;;2.30;;
50363;SDS011;36272;59.400;17.982;2023-04-03T00:47:34;14.65;;;2.65;;
50363;SDS011;36272;59.400;17.982;2023-04-03T00:52:36;14.70;;;2.20;;
50363;SDS011;36272;59.400;17.982;2023-04-03T00:57:39;10.45;;;2.38;;
50363;SDS011;36272;59.400;17.982;2023-04-03T01:02:42;17.40;;;2.55;;
50363;SDS011;36272;59.400;17.982;2023-04-03T01:07:44;15.63;;;2.30;;
50363;SDS011;36272;59.400;17.982;2023-04-03T01:12:51;11.48;;;2.05;;
50363;SDS011;36272;59.400;17.982;2023-04-03T01:17:54;7.85;;;2.05;;
50363;SDS011;36272;59.400;17.982;2023-04-03T01:28:33;16.15;;;2.17;;
50363;SDS011;36272;59.400;17.982;2023-04-03T01:33:37;13.32;;;2.20;;
50363;SDS011;36272;59.400;17.982;2023-04-03T01:38:39;13.68;;;2.17;;
50363;SDS011;36272;59.400;17.982;2023-04-03T01:43:41;18.65;;;3.03;;
50363;SDS011;36272;59.400;17.982;2023-04-03T01:48:43;9.77;;;1.77;;
50363;SDS011;36272;59.400;17.982;2023-04-03T01:53:45;11.48;;;2.10;;
50363;SDS011;36272;59.400;17.982;2023-04-03T01:58:47;10.40;;;2.50;;
50363;SDS011;36272;59.400;17.982;2023-04-03T02:03:48;16.25;;;2.60;;
50363;SDS011;36272;59.400;17.982;2023-04-03T02:08:55;12.98;;;2.35;;
50363;SDS011;36272;59.400;17.982;2023-04-03T02:13:57;22.90;;;3.28;;
50363;SDS011;36272;59.400;17.982;2023-04-03T02:19:04;11.63;;;2.22;;
50363;SDS011;36272;59.400;17.982;2023-04-03T02:24:05;10.32;;;2.00;;
50363;SDS011;36272;59.400;17.982;2023-04-03T02:29:07;12.70;;;2.30;;
50363;SDS011;36272;59.400;17.982;2023-04-03T02:34:09;11.68;;;1.90;;
50363;SDS011;36272;59.400;17.982;2023-04-03T02:39:21;14.70;;;2.72;;
50363;SDS011;36272;59.400;17.982;2023-04-03T02:44:23;13.27;;;2.25;;
50363;SDS011;36272;59.400;17.982;2023-04-03T02:49:25;11.82;;;2.35;;
50363;SDS011;36272;59.400;17.982;2023-04-03T02:54:29;12.18;;;2.30;;
50363;SDS011;36272;59.400;17.982;2023-04-03T02:59:37;15.63;;;2.70;;
50363;SDS011;36272;59.400;17.982;2023-04-03T03:04:41;9.05;;;2.10;;
50363;SDS011;36272;59.400;17.982;2023-04-03T03:09:43;12.63;;;2.50;;
50363;SDS011;36272;59.400;17.982;2023-04-03T03:14:45;7.55;;;1.95;;
50363;SDS011;36272;59.400;17.982;2023-04-03T03:19:47;13.77;;;2.45;;
50363;SDS011;36272;59.400;17.982;2023-04-03T03:24:49;12.65;;;2.40;;
50363;SDS011;36272;59.400;17.982;2023-04-03T03:29:55;16.55;;;2.28;;
50363;SDS011;36272;59.400;17.982;2023-04-03T03:34:57;14.80;;;2.45;;
50363;SDS011;36272;59.400;17.982;2023-04-03T03:39:59;11.25;;;2.60;;
50363;SDS011;36272;59.400;17.982;2023-04-03T03:45:00;10.55;;;2.22;;
50363;SDS011;36272;59.400;17.982;2023-04-03T03:50:02;16.33;;;2.65;;
50363;SDS011;36272;59.400;17.982;2023-04-03T03:55:04;10.32;;;2.20;;
50363;SDS011;36272;59.400;17.982;2023-04-03T04:00:12;12.10;;;2.53;;
50363;SDS011;36272;59.400;17.982;2023-04-03T04:05:14;13.73;;;2.25;;
50363;SDS011;36272;59.400;17.982;2023-04-03T04:10:31;14.50;;;2.28;;
50363;SDS011;36272;59.400;17.982;2023-04-03T04:15:32;12.40;;;2.33;;
50363;SDS011;36272;59.400;17.982;2023-04-03T04:20:39;8.30;;;2.10;;
50363;SDS011;36272;59.400;17.982;2023-04-03T04:25:41;12.25;;;2.13;;
50363;SDS011;36272;59.400;17.982;2023-04-03T04:30:50;16.05;;;2.53;;
50363;SDS011;36272;59.400;17.982;2023-04-03T04:35:52;15.70;;;2.70;;
50363;SDS011;36272;59.400;17.982;2023-04-03T04:40:59;10.00;;;2.10;;
50363;SDS011;36272;59.400;17.982;2023-04-03T04:46:01;12.63;;;2.30;;
50363;SDS011;36272;59.400;17.982;2023-04-03T04:51:07;12.63;;;2.45;;
50363;SDS011;36272;59.400;17.982;2023-04-03T04:56:09;14.40;;;2.38;;
50363;SDS011;36272;59.400;17.982;2023-04-03T05:01:11;13.15;;;2.33;;
50363;SDS011;36272;59.400;17.982;2023-04-03T05:12:28;15.40;;;2.28;;
50363;SDS011;36272;59.400;17.982;2023-04-03T05:17:30;8.65;;;2.08;;
50363;SDS011;36272;59.400;17.982;2023-04-03T05:22:37;13.15;;;2.15;;
50363;SDS011;36272;59.400;17.982;2023-04-03T05:27:39;17.58;;;2.60;;
50363;SDS011;36272;59.400;17.982;2023-04-03T05:32:40;8.73;;;3.03;;
50363;SDS011;36272;59.400;17.982;2023-04-03T05:37:43;13.15;;;2.05;;
50363;SDS011;36272;59.400;17.982;2023-04-03T05:42:45;7.45;;;2.20;;
50363;SDS011;36272;59.400;17.982;2023-04-03T05:47:46;11.40;;;2.42;;
50363;SDS011;36272;59.400;17.982;2023-04-03T05:52:54;14.50;;;2.70;;
50363;SDS011;36272;59.400;17.982;2023-04-03T05:57:57;12.13;;;2.95;;
50363;SDS011;36272;59.400;17.982;2023-04-03T06:02:59;11.35;;;2.63;;
50363;SDS011;36272;59.400;17.982;2023-04-03T06:08:01;10.25;;;1.90;;
50363;SDS011;36272;59.400;17.982;2023-04-03T06:13:02;13.70;;;2.20;;
50363;SDS011;36272;59.400;17.982;2023-04-03T06:18:04;10.70;;;2.47;;
50363;SDS011;36272;59.400;17.982;2023-04-03T06:23:06;11.90;;;2.20;;
50363;SDS011;36272;59.400;17.982;2023-04-03T06:28:13;13.73;;;2.58;;
50363;SDS011;36272;59.400;17.982;2023-04-03T06:33:15;30.70;;;2.88;;
50363;SDS011;36272;59.400;17.982;2023-04-03T06:38:16;10.00;;;2.08;;
50363;SDS011;36272;59.400;17.982;2023-04-03T06:43:19;9.70;;;2.00;;
50363;SDS011;36272;59.400;17.982;2023-04-03T06:48:30;10.75;;;2.20;;
50363;SDS011;36272;59.400;17.982;2023-04-03T06:53:31;14.77;;;2.50;;
50363;SDS011;36272;59.400;17.982;2023-04-03T06:58:33;13.18;;;2.45;;
50363;SDS011;36272;59.400;17.982;2023-04-03T07:03:37;13.27;;;2.20;;
50363;SDS011;36272;59.400;17.982;2023-04-03T07:08:39;9.30;;;2.30;;
50363;SDS011;36272;59.400;17.982;2023-04-03T07:13:41;13.15;;;2.40;;
50363;SDS011;36272;59.400;17.982;2023-04-03T07:18:43;9.23;;;2.40;;
50363;SDS011;36272;59.400;17.982;2023-04-03T07:23:45;18.55;;;2.67;;
50363;SDS011;36272;59.400;17.982;2023-04-03T07:28:48;12.90;;;2.55;;
50363;SDS011;36272;59.400;17.982;2023-04-03T07:33:51;12.43;;;2.00;;
50363;SDS011;36272;59.400;17.982;2023-04-03T07:38:57;14.15;;;2.22;;
50363;SDS011;36272;59.400;17.982;2023-04-03T07:43:59;14.60;;;2.38;;
50363;SDS011;36272;59.400;17.982;2023-04-03T07:49:13;9.65;;;2.15;;
50363;SDS011;36272;59.400;17.982;2023-04-03T07:54:15;9.15;;;2.05;;
50363;SDS011;36272;59.400;17.982;2023-04-03T07:59:22;9.32;;;2.15;;
50363;SDS011;36272;59.400;17.982;2023-04-03T08:04:26;6.68;;;1.95;;
50363;SDS011;36272;59.400;17.982;2023-04-03T08:09:29;7.05;;;1.75;;
50363;SDS011;36272;59.400;17.982;2023-04-03T08:14:32;8.35;;;1.75;;
50363;SDS011;36272;59.400;17.982;2023-04-03T08:19:38;12.38;;;1.70;;
50363;SDS011;36272;59.400;17.982;2023-04-03T08:24:40;7.57;;;2.10;;
50363;SDS011;36272;59.400;17.982;2023-04-03T08:29:47;5.35;;;1.58;;
50363;SDS011;36272;59.400;17.982;2023-04-03T08:34:53;7.70;;;1.75;;
50363;SDS011;36272;59.400;17.982;2023-04-03T08:39:54;6.38;;;1.92;;
50363;SDS011;36272;59.400;17.982;2023-04-03T08:44:59;9.73;;;1.92;;
50363;SDS011;36272;59.400;17.982;2023-04-03T08:50:14;11.40;;;2.30;;
50363;SDS011;36272;59.400;17.982;2023-04-03T08:55:23;7.70;;;1.48;;
50363;SDS011;36272;59.400;17.982;2023-04-03T09:00:50;7.72;;;1.60;;
50363;SDS011;36272;59.400;17.982;2023-04-03T09:06:00;10.27;;;2.15;;
50363;SDS011;36272;59.400;17.982;2023-04-03T09:11:21;11.40;;;1.90;;
50363;SDS011;36272;59.400;17.982;2023-04-03T09:16:47;14.80;;;2.00;;
50363;SDS011;36272;59.400;17.982;2023-04-03T09:22:31;9.40;;;2.38;;
50363;SDS011;36272;59.400;17.982;2023-04-03T09:27:27;10.68;;;1.75;;
50363;SDS011;36272;59.400;17.982;2023-04-03T09:32:32;8.25;;;2.50;;
50363;SDS011;36272;59.400;17.982;2023-04-03T09:37:37;11.52;;;2.30;;
50363;SDS011;36272;59.400;17.982;2023-04-03T09:42:44;20.40;;;2.92;;
50363;SDS011;36272;59.400;17.982;2023-04-03T09:47:46;8.20;;;2.28;;
50363;SDS011;36272;59.400;17.982;2023-04-03T09:52:49;18.60;;;2.63;;
50363;SDS011;36272;59.400;17.982;2023-04-03T09:57:59;9.65;;;2.22;;
50363;SDS011;36272;59.400;17.982;2023-04-03T10:03:03;9.25;;;2.00;;
50363;SDS011;36272;59.400;17.982;2023-04-03T10:13:17;11.13;;;2.10;;
50363;SDS011;36272;59.400;17.982;2023-04-03T10:23:51;7.68;;;1.80;;
50363;SDS011;36272;59.400;17.982;2023-04-03T10:39:49;16.77;;;2.13;;
50363;SDS011;36272;59.400;17.982;2023-04-03T10:56:10;8.40;;;1.90;;
50363;SDS011;36272;59.400;17.982;2023-04-03T11:01:22;9.75;;;1.55;;
50363;SDS011;36272;59.400;17.982;2023-04-03T11:06:31;14.13;;;2.05;;
50363;SDS011;36272;59.400;17.982;2023-04-03T11:16:51;5.20;;;1.50;;
50363;SDS011;36272;59.400;17.982;2023-04-03T11:22:22;4.95;;;1.63;;
50363;SDS011;36272;59.400;17.982;2023-04-03T11:27:38;10.70;;;1.52;;
50363;SDS011;36272;59.400;17.982;2023-04-03T11:38:21;7.47;;;1.40;;
50363;SDS011;36272;59.400;17.982;2023-04-03T11:43:30;4.40;;;1.58;;
50363;SDS011;36272;59.400;17.982;2023-04-03T11:53:38;8.23;;;1.38;;
50363;SDS011;36272;59.400;17.982;2023-04-03T11:58:46;6.15;;;1.13;;
50363;SDS011;36272;59.400;17.982;2023-04-03T12:04:11;3.00;;;1.20;;
50363;SDS011;36272;59.400;17.982;2023-04-03T12:09:35;5.15;;;1.00;;
50363;SDS011;36272;59.400;17.982;2023-04-03T12:20:46;5.60;;;1.65;;
50363;SDS011;36272;59.400;17.982;2023-04-03T12:25:50;8.63;;;1.10;;
50363;SDS011;36272;59.400;17.982;2023-04-03T12:30:53;5.53;;;1.02;;
50363;SDS011;36272;59.400;17.982;2023-04-03T12:36:08;3.83;;;0.93;;
50363;SDS011;36272;59.400;17.982;2023-04-03T12:46:59;5.75;;;1.45;;
50363;SDS011;36272;59.400;17.982;2023-04-03T12:52:04;3.35;;;1.35;;
50363;SDS011;36272;59.400;17.982;2023-04-03T12:57:20;4.72;;;0.90;;
50363;SDS011;36272;59.400;17.982;2023-04-03T13:02:26;4.43;;;1.25;;
50363;SDS011;36272;59.400;17.982;2023-04-03T13:07:31;7.97;;;1.27;;
50363;SDS011;36272;59.400;17.982;2023-04-03T13:12:35;16.10;;;1.40;;
50363;SDS011;36272;59.400;17.982;2023-04-03T13:17:47;11.30;;;1.25;;
50363;SDS011;36272;59.400;17.982;2023-04-03T13:22:55;15.97;;;2.87;;
50363;SDS011;36272;59.400;17.982;2023-04-03T13:28:09;27.85;;;2.60;;
50363;SDS011;36272;59.400;17.982;2023-04-03T13:33:19;12.73;;;1.70;;
50363;SDS011;36272;59.400;17.982;2023-04-03T13:38:27;6.43;;;1.42;;
50363;SDS011;36272;59.400;17.982;2023-04-03T13:43:37;6.30;;;1.40;;
50363;SDS011;36272;59.400;17.982;2023-04-03T13:48:41;5.20;;;1.20;;
50363;SDS011;36272;59.400;17.982;2023-04-03T13:53:47;6.22;;;1.30;;
50363;SDS011;36272;59.400;17.982;2023-04-03T14:04:45;16.65;;;1.30;;
50363;SDS011;36272;59.400;17.982;2023-04-03T14:09:54;6.57;;;1.38;;
50363;SDS011;36272;59.400;17.982;2023-04-03T14:14:56;7.47;;;1.58;;
50363;SDS011;36272;59.400;17.982;2023-04-03T14:20:02;7.95;;;1.10;;
50363;SDS011;36272;59.400;17.982;2023-04-03T14:25:04;9.63;;;1.30;;
50363;SDS011;36272;59.400;17.982;2023-04-03T14:30:19;9.32;;;1.23;;
50363;SDS011;36272;59.400;17.982;2023-04-03T14:35:32;5.95;;;0.98;;
50363;SDS011;36272;59.400;17.982;2023-04-03T14:40:34;14.35;;;1.65;;
50363;SDS011;36272;59.400;17.982;2023-04-03T14:45:37;8.27;;;1.33;;
50363;SDS011;36272;59.400;17.982;2023-04-03T14:50:39;5.43;;;1.20;;
50363;SDS011;36272;59.400;17.982;2023-04-03T14:55:42;11.38;;;1.17;;
50363;SDS011;36272;59.400;17.982;2023-04-03T15:00:48;3.28;;;1.00;;
50363;SDS011;36272;59.400;17.982;2023-04-03T15:05:49;5.13;;;1.13;;
50363;SDS011;36272;59.400;17.982;2023-04-03T15:10:51;3.50;;;1.13;;
50363;SDS011;36272;59.400;17.982;2023-04-03T15:15:53;3.80;;;1.02;;
50363;SDS011;36272;59.400;17.982;2023-04-03T15:20:58;3.65;;;1.00;;
50363;SDS011;36272;59.400;17.982;2023-04-03T15:26:00;7.53;;;1.38;;
50363;SDS011;36272;59.400;17.982;2023-04-03T15:31:03;3.92;;;1.00;;
50363;SDS011;36272;59.400;17.982;2023-04-03T15:36:06;3.35;;;1.23;;
50363;SDS011;36272;59.400;17.982;2023-04-03T15:41:07;6.93;;;1.05;;
50363;SDS011;36272;59.400;17.982;2023-04-03T15:46:09;8.20;;;1.58;;
50363;SDS011;36272;59.400;17.982;2023-04-03T15:51:11;6.88;;;1.48;;
50363;SDS011;36272;59.400;17.982;2023-04-03T15:56:12;3.35;;;0.90;;
50363;SDS011;36272;59.400;17.982;2023-04-03T16:01:14;18.02;;;1.55;;
50363;SDS011;36272;59.400;17.982;2023-04-03T16:06:17;5.07;;;1.05;;
50363;SDS011;36272;59.400;17.982;2023-04-03T16:11:22;3.50;;;1.15;;
50363;SDS011;36272;59.400;17.982;2023-04-03T16:16:24;10.55;;;1.48;;
50363;SDS011;36272;59.400;17.982;2023-04-03T16:21:28;5.47;;;1.20;;
50363;SDS011;36272;59.400;17.982;2023-04-03T16:26:30;3.00;;;0.93;;
50363;SDS011;36272;59.400;17.982;2023-04-03T16:31:32;6.78;;;1.23;;
50363;SDS011;36272;59.400;17.982;2023-04-03T16:36:34;9.15;;;1.45;;
50363;SDS011;36272;59.400;17.982;2023-04-03T16:41:38;3.63;;;1.15;;
50363;SDS011;36272;59.400;17.982;2023-04-03T16:46:40;5.55;;;1.05;;
50363;SDS011;36272;59.400;17.982;2023-04-03T16:51:41;4.07;;;1.00;;
50363;SDS011;36272;59.400;17.982;2023-04-03T16:56:43;6.68;;;1.17;;
50363;SDS011;36272;59.400;17.982;2023-04-03T17:01:45;6.05;;;1.17;;
50363;SDS011;36272;59.400;17.982;2023-04-03T17:06:47;4.85;;;1.00;;
50363;SDS011;36272;59.400;17.982;2023-04-03T17:11:49;7.47;;;1.27;;
50363;SDS011;36272;59.400;17.982;2023-04-03T17:16:51;8.23;;;1.77;;
50363;SDS011;36272;59.400;17.982;2023-04-03T17:21:53;8.10;;;1.30;;
50363;SDS011;36272;59.400;17.982;2023-04-03T17:26:55;9.07;;;1.33;;
50363;SDS011;36272;59.400;17.982;2023-04-03T17:31:56;14.20;;;1.52;;
50363;SDS011;36272;59.400;17.982;2023-04-03T17:37:01;10.05;;;1.88;;
50363;SDS011;36272;59.400;17.982;2023-04-03T17:42:03;11.88;;;1.38;;
50363;SDS011;36272;59.400;17.982;2023-04-03T17:47:05;37.17;;;2.80;;
50363;SDS011;36272;59.400;17.982;2023-04-03T17:52:07;8.18;;;1.23;;
50363;SDS011;36272;59.400;17.982;2023-04-03T17:57:10;24.80;;;2.78;;
50363;SDS011;36272;59.400;17.982;2023-04-03T18:02:15;20.50;;;1.90;;
50363;SDS011;36272;59.400;17.982;2023-04-03T18:07:16;11.32;;;1.63;;
50363;SDS011;36272;59.400;17.982;2023-04-03T18:12:18;26.35;;;2.20;;
50363;SDS011;36272;59.400;17.982;2023-04-03T18:17:20;22.45;;;1.92;;
50363;SDS011;36272;59.400;17.982;2023-04-03T18:22:24;26.05;;;2.13;;
50363;SDS011;36272;59.400;17.982;2023-04-03T18:27:27;5.45;;;1.05;;
50363;SDS011;36272;59.400;17.982;2023-04-03T18:32:29;12.95;;;1.90;;
50363;SDS011;36272;59.400;17.982;2023-04-03T18:37:30;7.68;;;1.35;;
50363;SDS011;36272;59.400;17.982;2023-04-03T18:42:32;12.45;;;2.25;;
50363;SDS011;36272;59.400;17.982;2023-04-03T18:47:34;16.90;;;1.50;;
50363;SDS011;36272;59.400;17.982;2023-04-03T18:52:37;33.65;;;2.65;;
50363;SDS011;36272;59.400;17.982;2023-04-03T18:57:38;10.20;;;2.10;;
50363;SDS011;36272;59.400;17.982;2023-04-03T19:02:40;30.27;;;3.67;;
50363;SDS011;36272;59.400;17.982;2023-04-03T19:07:42;30.75;;;2.40;;
50363;SDS011;36272;59.400;17.982;2023-04-03T19:12:45;22.77;;;2.15;;
50363;SDS011;36272;59.400;17.982;2023-04-03T19:17:48;10.85;;;1.77;;
50363;SDS011;36272;59.400;17.982;2023-04-03T19:22:49;8.27;;;1.83;;
50363;SDS011;36272;59.400;17.982;2023-04-03T19:27:51;14.35;;;1.88;;
50363;SDS011;36272;59.400;17.982;2023-04-03T19:32:54;17.25;;;2.45;;
50363;SDS011;36272;59.400;17.982;2023-04-03T19:37:56;14.50;;;2.13;;
50363;SDS011;36272;59.400;17.982;2023-04-03T19:42:58;15.23;;;2.53;;
50363;SDS011;36272;59.400;17.982;2023-04-03T19:47:59;17.40;;;2.03;;
50363;SDS011;36272;59.400;17.982;2023-04-03T19:53:01;9.00;;;1.65;;
50363;SDS011;36272;59.400;17.982;2023-04-03T19:58:03;13.98;;;2.17;;
50363;SDS011;36272;59.400;17.982;2023-04-03T20:03:05;18.10;;;1.95;;
50363;SDS011;36272;59.400;17.982;2023-04-03T20:08:06;8.55;;;2.17;;
50363;SDS011;36272;59.400;17.982;2023-04-03T20:13:09;18.67;;;2.40;;
50363;SDS011;36272;59.400;17.982;2023-04-03T20:18:17;13.57;;;2.33;;
50363;SDS011;36272;59.400;17.982;2023-04-03T20:23:20;7.40;;;1.98;;
50363;SDS011;36272;59.400;17.982;2023-04-03T20:28:27;7.88;;;1.85;;
50363;SDS011;36272;59.400;17.982;2023-04-03T20:33:29;23.35;;;2.53;;
50363;SDS011;36272;59.400;17.982;2023-04-03T20:38:30;25.10;;;2.72;;
50363;SDS011;36272;59.400;17.982;2023-04-03T20:43:32;14.73;;;2.47;;
50363;SDS011;36272;59.400;17.982;2023-04-03T20:48:34;15.70;;;2.40;;
50363;SDS011;36272;59.400;17.982;2023-04-03T20:53:36;12.02;;;2.17;;
50363;SDS011;36272;59.400;17.982;2023-04-03T20:58:39;29.05;;;3.13;;
50363;SDS011;36272;59.400;17.982;2023-04-03T21:03:43;12.10;;;2.33;;
50363;SDS011;36272;59.400;17.982;2023-04-03T21:20:09;18.83;;;2.85;;
50363;SDS011;36272;59.400;17.982;2023-04-03T21:25:11;17.55;;;2.70;;
50363;SDS011;36272;59.400;17.982;2023-04-03T21:30:12;17.65;;;3.38;;
50363;SDS011;36272;59.400;17.982;2023-04-03T21:35:15;18.45;;;3.13;;
50363;SDS011;36272;59.400;17.982;2023-04-03T21:40:17;24.80;;;3.40;;
50363;SDS011;36272;59.400;17.982;2023-04-03T21:45:18;24.30;;;4.57;;
50363;SDS011;36272;59.400;17.982;2023-04-03T21:50:20;32.30;;;3.15;;
50363;SDS011;36272;59.400;17.982;2023-04-03T21:55:22;47.63;;;5.95;;
50363;SDS011;36272;59.400;17.982;2023-04-03T22:00:34;20.80;;;3.22;;
50363;SDS011;36272;59.400;17.982;2023-04-03T22:05:35;25.38;;;3.83;;
50363;SDS011;36272;59.400;17.982;2023-04-03T22:10:37;22.13;;;2.92;;
50363;SDS011;36272;59.400;17.982;2023-04-03T22:15:40;28.60;;;3.03;;
50363;SDS011;36272;59.400;17.982;2023-04-03T22:20:47;11.63;;;2.90;;
50363;SDS011;36272;59.400;17.982;2023-04-03T22:25:58;13.80;;;2.33;;
50363;SDS011;36272;59.400;17.982;2023-04-03T22:31:04;12.30;;;2.00;;
50363;SDS011;36272;59.400;17.982;2023-04-03T22:36:10;8.27;;;1.88;;
50363;SDS011;36272;59.400;17.982;2023-04-03T22:41:17;11.05;;;2.55;;
50363;SDS011;36272;59.400;17.982;2023-04-03T22:46:19;10.25;;;2.20;;
50363;SDS011;36272;59.400;17.982;2023-04-03T22:51:26;8.35;;;2.42;;
50363;SDS011;36272;59.400;17.982;2023-04-03T22:56:28;26.45;;;2.60;;
50363;SDS011;36272;59.400;17.982;2023-04-03T23:01:40;14.90;;;2.42;;
50363;SDS011;36272;59.400;17.982;2023-04-03T23:06:42;19.02;;;2.20;;
50363;SDS011;36272;59.400;17.982;2023-04-03T23:11:43;6.47;;;2.38;;
50363;SDS011;36272;59.400;17.982;2023-04-03T23:16:45;7.45;;;2.17;;
50363;SDS011;36272;59.400;17.982;2023-04-03T23:21:57;7.20;;;2.25;;
50363;SDS011;36272;59.400;17.982;2023-04-03T23:26:58;5.93;;;2.33;;
50363;SDS011;36272;59.400;17.982;2023-04-03T23:32:02;13.02;;;2.65;;
50363;SDS011;36272;59.400;17.982;2023-04-03T23:37:04;11.15;;;2.30;;
50363;SDS011;36272;59.400;17.982;2023-04-03T23:42:06;6.60;;;1.95;;
50363;SDS011;36272;59.400;17.982;2023-04-03T23:47:11;12.93;;;2.60;;
50363;SDS011;36272;59.400;17.982;2023-04-03T23:52:12;6.47;;;2.10;;
50363;SDS011;36272;59.400;17.982;2023-04-03T23:57:14;11.38;;;2.47;;
